createdAt,value
2017-10-11T00:02:12.224Z,15.53
2017-10-11T00:04:40.387Z,15.53
2017-10-11T00:07:08.346Z,15.54
2017-10-11T00:09:36.439Z,15.52
2017-10-11T00:12:04.511Z,15.50
2017-10-11T00:14:32.691Z,15.51
2017-10-11T00:17:00.803Z,15.48
2017-10-11T00:19:28.831Z,15.47
2017-10-11T00:21:57.039Z,15.48
2017-10-11T00:24:26.860Z,15.49
2017-10-11T00:26:54.958Z,15.49
2017-10-11T00:29:23.099Z,15.49
2017-10-11T00:31:51.269Z,15.45
2017-10-11T00:34:19.342Z,15.45
2017-10-11T00:36:47.713Z,15.44
2017-10-11T00:39:15.835Z,15.44
2017-10-11T00:41:43.920Z,15.42
2017-10-11T00:44:11.713Z,15.42
2017-10-11T00:46:40.381Z,15.42
2017-10-11T00:49:08.393Z,15.42
2017-10-11T00:51:36.238Z,15.35
2017-10-11T00:54:04.755Z,15.34
2017-10-11T00:56:32.539Z,15.35
2017-10-11T00:59:00.380Z,15.33
2017-10-11T01:01:28.161Z,15.31
2017-10-11T01:03:55.974Z,15.31
2017-10-11T01:06:23.952Z,15.30
2017-10-11T01:08:51.788Z,15.28
2017-10-11T01:11:22.974Z,15.28
2017-10-11T01:13:51.891Z,15.26
2017-10-11T01:16:20.840Z,15.30
2017-10-11T01:18:48.687Z,15.26
2017-10-11T01:21:16.687Z,15.18
2017-10-11T01:23:44.572Z,15.15
2017-10-11T01:26:13.570Z,15.16
2017-10-11T01:28:41.498Z,15.15
2017-10-11T01:31:09.945Z,15.18
2017-10-11T01:33:37.737Z,15.16
2017-10-11T01:36:06.884Z,15.17
2017-10-11T01:38:35.621Z,15.16
2017-10-11T01:41:04.901Z,15.14
2017-10-11T01:43:33.219Z,15.14
2017-10-11T01:46:02.402Z,15.14
2017-10-11T01:48:30.162Z,15.14
2017-10-11T01:50:57.936Z,15.16
2017-10-11T01:53:25.812Z,15.17
2017-10-11T01:55:53.734Z,15.11
2017-10-11T01:58:21.709Z,15.09
2017-10-11T02:00:49.710Z,15.05
2017-10-11T02:03:17.712Z,15.07
2017-10-11T02:05:45.737Z,15.11
2017-10-11T02:08:13.827Z,15.12
2017-10-11T02:10:44.812Z,15.11
2017-10-11T02:13:12.627Z,15.09
2017-10-11T02:15:40.551Z,15.07
2017-10-11T02:18:09.102Z,15.09
2017-10-11T02:20:37.025Z,15.07
2017-10-11T02:23:04.906Z,15.09
2017-10-11T02:25:32.714Z,15.11
2017-10-11T02:28:01.634Z,15.09
2017-10-11T02:30:29.700Z,15.07
2017-10-11T02:32:57.565Z,15.07
2017-10-11T02:35:25.397Z,15.05
2017-10-11T02:37:53.430Z,15.07
2017-10-11T02:40:21.299Z,15.06
2017-10-11T02:42:49.264Z,15.01
2017-10-11T02:45:17.196Z,15.04
2017-10-11T02:47:45.099Z,15.03
2017-10-11T02:50:13.546Z,15.03
2017-10-11T02:52:42.164Z,15.03
2017-10-11T02:55:10.106Z,14.99
2017-10-11T02:57:38.028Z,15.00
2017-10-11T03:00:05.840Z,14.94
2017-10-11T03:02:34.155Z,14.89
2017-10-11T03:05:02.906Z,14.83
2017-10-11T03:07:31.594Z,14.83
2017-10-11T03:09:59.470Z,14.83
2017-10-11T03:12:27.325Z,14.83
2017-10-11T03:14:55.195Z,14.79
2017-10-11T03:17:23.100Z,14.80
2017-10-11T03:19:51.038Z,14.79
2017-10-11T03:22:18.925Z,14.80
2017-10-11T03:24:46.806Z,14.85
2017-10-11T03:27:15.653Z,14.86
2017-10-11T03:29:43.605Z,14.85
2017-10-11T03:32:11.413Z,14.85
2017-10-11T03:34:39.265Z,14.87
2017-10-11T03:37:07.175Z,14.89
2017-10-11T03:39:35.078Z,14.86
2017-10-11T03:42:04.033Z,14.85
2017-10-11T03:44:31.944Z,14.83
2017-10-11T03:46:59.800Z,14.85
2017-10-11T03:49:27.712Z,14.84
2017-10-11T03:51:55.638Z,14.82
2017-10-11T03:54:23.593Z,14.82
2017-10-11T03:56:51.585Z,14.83
2017-10-11T03:59:19.421Z,14.81
2017-10-11T04:01:47.400Z,14.80
2017-10-11T04:04:15.317Z,14.85
2017-10-11T04:06:43.196Z,14.83
2017-10-11T04:09:11.254Z,14.81
2017-10-11T04:11:39.260Z,14.80
2017-10-11T04:14:07.126Z,14.81
2017-10-11T04:16:35.952Z,14.79
2017-10-11T04:19:03.904Z,14.77
2017-10-11T04:21:31.771Z,14.78
2017-10-11T04:23:59.759Z,14.78
2017-10-11T04:26:27.968Z,14.79
2017-10-11T04:28:55.958Z,14.73
2017-10-11T04:31:24.298Z,14.72
2017-10-11T04:33:52.277Z,14.70
2017-10-11T04:36:20.229Z,14.73
2017-10-11T04:38:48.087Z,14.72
2017-10-11T04:41:16.082Z,14.74
2017-10-11T04:43:44.075Z,14.74
2017-10-11T04:46:12.040Z,14.77
2017-10-11T04:48:39.914Z,14.79
2017-10-11T04:51:07.769Z,14.83
2017-10-11T04:53:35.681Z,14.76
2017-10-11T04:56:03.572Z,14.77
2017-10-11T04:58:31.494Z,14.75
2017-10-11T05:00:59.320Z,14.80
2017-10-11T05:03:27.377Z,14.83
2017-10-11T05:05:55.316Z,14.84
2017-10-11T05:08:23.099Z,14.79
2017-10-11T05:10:51.012Z,14.74
2017-10-11T05:13:18.905Z,14.69
2017-10-11T05:15:46.734Z,14.69
2017-10-11T05:18:14.434Z,14.68
2017-10-11T05:20:42.239Z,14.66
2017-10-11T05:23:10.655Z,14.68
2017-10-11T05:25:38.567Z,14.67
2017-10-11T05:28:06.438Z,14.71
2017-10-11T05:30:34.269Z,14.76
2017-10-11T05:33:02.180Z,14.77
2017-10-11T05:35:30.095Z,14.79
2017-10-11T05:37:57.795Z,14.80
2017-10-11T05:40:25.486Z,14.83
2017-10-11T05:42:53.376Z,14.85
2017-10-11T05:45:21.900Z,14.84
2017-10-11T05:47:49.801Z,14.84
2017-10-11T05:50:18.184Z,14.85
2017-10-11T05:52:45.971Z,14.89
2017-10-11T05:55:13.991Z,14.91
2017-10-11T05:57:41.893Z,14.88
2017-10-11T06:00:09.743Z,14.88
2017-10-11T06:02:37.638Z,14.89
2017-10-11T06:05:05.529Z,14.91
2017-10-11T06:07:33.403Z,14.97
2017-10-11T06:10:01.251Z,14.97
2017-10-11T06:12:30.114Z,14.94
2017-10-11T06:14:58.104Z,14.93
2017-10-11T06:17:26.905Z,14.92
2017-10-11T06:19:55.137Z,14.97
2017-10-11T06:22:23.099Z,14.95
2017-10-11T06:24:50.926Z,14.86
2017-10-11T06:27:18.893Z,14.83
2017-10-11T06:29:47.204Z,14.81
2017-10-11T06:32:15.341Z,14.82
2017-10-11T06:34:43.229Z,14.86
2017-10-11T06:37:11.213Z,14.88
2017-10-11T06:39:39.155Z,14.92
2017-10-11T06:42:07.652Z,14.91
2017-10-11T06:44:35.783Z,14.90
2017-10-11T06:47:03.699Z,14.91
2017-10-11T06:49:31.568Z,14.94
2017-10-11T06:51:59.511Z,14.95
2017-10-11T06:54:27.664Z,14.98
2017-10-11T06:56:55.564Z,15.01
2017-10-11T06:59:23.369Z,15.02
2017-10-11T07:01:51.200Z,15.06
2017-10-11T07:04:19.047Z,15.04
2017-10-11T07:06:46.868Z,15.05
2017-10-11T07:09:15.994Z,15.04
2017-10-11T07:11:44.089Z,14.97
2017-10-11T07:14:12.932Z,15.02
2017-10-11T07:16:40.883Z,15.04
2017-10-11T07:19:08.842Z,15.06
2017-10-11T07:21:36.818Z,15.05
2017-10-11T07:24:05.047Z,15.04
2017-10-11T07:26:33.160Z,15.06
2017-10-11T07:29:01.354Z,15.08
2017-10-11T07:31:29.522Z,15.04
2017-10-11T07:33:57.583Z,15.06
2017-10-11T07:36:25.674Z,15.10
2017-10-11T07:38:53.901Z,15.06
2017-10-11T07:41:22.201Z,15.11
2017-10-11T07:43:50.275Z,15.14
2017-10-11T07:46:18.415Z,15.18
2017-10-11T07:48:46.535Z,15.17
2017-10-11T07:51:14.653Z,15.16
2017-10-11T07:53:42.763Z,15.21
2017-10-11T07:56:11.742Z,15.23
2017-10-11T07:58:40.145Z,15.23
2017-10-11T08:01:08.538Z,15.22
2017-10-11T08:03:37.199Z,15.23
2017-10-11T08:06:05.465Z,15.24
2017-10-11T08:08:33.708Z,15.22
2017-10-11T08:11:02.436Z,15.22
2017-10-11T08:13:30.674Z,15.22
2017-10-11T08:15:58.990Z,15.24
2017-10-11T08:18:27.472Z,15.27
2017-10-11T08:20:56.379Z,15.28
2017-10-11T08:23:24.484Z,15.30
2017-10-11T08:25:52.555Z,15.29
2017-10-11T08:28:20.783Z,15.31
2017-10-11T08:30:49.578Z,15.37
2017-10-11T08:33:17.981Z,15.36
2017-10-11T08:35:48.048Z,15.36
2017-10-11T08:38:17.303Z,15.39
2017-10-11T08:40:45.404Z,15.39
2017-10-11T08:43:13.349Z,15.39
2017-10-11T08:45:41.471Z,15.41
2017-10-11T08:48:09.535Z,15.39
2017-10-11T08:50:37.776Z,15.41
2017-10-11T08:53:05.923Z,15.43
2017-10-11T08:55:34.535Z,15.42
2017-10-11T08:58:03.862Z,15.41
2017-10-11T09:00:31.966Z,15.40
2017-10-11T09:03:00.293Z,15.40
2017-10-11T09:05:28.570Z,15.41
2017-10-11T09:07:56.677Z,15.47
2017-10-11T09:10:24.858Z,15.48
2017-10-11T09:12:53.060Z,15.50
2017-10-11T09:15:21.930Z,15.55
2017-10-11T09:17:50.208Z,15.58
2017-10-11T09:20:18.420Z,15.63
2017-10-11T09:22:46.416Z,15.66
2017-10-11T09:25:14.585Z,15.69
2017-10-11T09:27:42.740Z,15.71
2017-10-11T09:30:10.880Z,15.77
2017-10-11T09:32:39.037Z,15.78
2017-10-11T09:35:07.183Z,15.79
2017-10-11T09:37:36.372Z,15.84
2017-10-11T09:40:04.700Z,15.81
2017-10-11T09:42:32.813Z,15.80
2017-10-11T09:45:00.878Z,15.79
2017-10-11T09:47:28.878Z,15.82
2017-10-11T09:49:56.844Z,15.84
2017-10-11T09:52:25.008Z,15.87
2017-10-11T09:54:53.168Z,15.87
2017-10-11T09:57:21.318Z,15.88
2017-10-11T09:59:49.410Z,15.89
2017-10-11T10:02:17.549Z,15.90
2017-10-11T10:04:46.485Z,15.90
2017-10-11T10:07:14.482Z,15.91
2017-10-11T10:09:42.527Z,15.90
2017-10-11T10:12:10.641Z,15.92
2017-10-11T10:14:38.681Z,15.89
2017-10-11T10:17:06.674Z,15.91
2017-10-11T10:19:34.742Z,15.88
2017-10-11T10:22:03.720Z,15.89
2017-10-11T10:24:31.802Z,15.89
2017-10-11T10:26:59.946Z,15.89
2017-10-11T10:29:27.919Z,15.90
2017-10-11T10:31:56.039Z,15.90
2017-10-11T10:34:24.125Z,15.91
2017-10-11T10:36:52.187Z,15.88
2017-10-11T10:39:20.322Z,15.91
2017-10-11T10:41:48.363Z,15.91
2017-10-11T10:44:16.392Z,15.92
2017-10-11T10:46:44.399Z,15.93
2017-10-11T10:49:12.447Z,15.91
2017-10-11T10:51:40.490Z,15.93
2017-10-11T10:54:08.507Z,15.94
2017-10-11T10:56:36.512Z,15.97
2017-10-11T10:59:05.982Z,16.00
2017-10-11T11:01:34.076Z,16.04
2017-10-11T11:04:02.219Z,16.04
2017-10-11T11:06:30.663Z,16.05
2017-10-11T11:08:58.611Z,16.06
2017-10-11T11:11:26.689Z,16.08
2017-10-11T11:13:54.698Z,16.09
2017-10-11T11:16:22.857Z,16.13
2017-10-11T11:18:51.017Z,16.11
2017-10-11T11:21:19.108Z,16.10
2017-10-11T11:23:47.324Z,16.12
2017-10-11T11:26:15.356Z,16.12
2017-10-11T11:28:43.300Z,16.15
2017-10-11T11:31:11.609Z,16.16
2017-10-11T11:33:39.968Z,16.19
2017-10-11T11:36:08.213Z,16.20
2017-10-11T11:38:36.230Z,16.20
2017-10-11T11:41:04.287Z,16.20
2017-10-11T11:43:32.322Z,16.21
2017-10-11T11:46:00.290Z,16.20
2017-10-11T11:48:28.293Z,16.21
2017-10-11T11:50:56.439Z,16.25
2017-10-11T11:53:24.481Z,16.25
2017-10-11T11:55:52.520Z,16.25
2017-10-11T11:58:20.548Z,16.23
2017-10-11T12:00:48.800Z,16.24
2017-10-11T12:03:16.766Z,16.22
2017-10-11T12:05:44.793Z,16.23
2017-10-11T12:08:12.776Z,16.21
2017-10-11T12:10:40.789Z,16.23
2017-10-11T12:13:09.353Z,16.24
2017-10-11T12:15:39.474Z,16.25
2017-10-11T12:18:07.660Z,16.27
2017-10-11T12:20:35.589Z,16.27
2017-10-11T12:23:03.609Z,16.28
2017-10-11T12:25:31.588Z,16.26
2017-10-11T12:27:59.688Z,16.26
2017-10-11T12:30:28.538Z,16.24
2017-10-11T12:32:56.536Z,16.25
2017-10-11T12:35:25.223Z,16.26
2017-10-11T12:37:53.117Z,16.28
2017-10-11T12:40:21.098Z,16.25
2017-10-11T12:42:49.017Z,16.25
2017-10-11T12:45:17.029Z,16.26
2017-10-11T12:47:44.933Z,16.26
2017-10-11T12:50:12.852Z,16.27
2017-10-11T12:52:40.630Z,16.27
2017-10-11T12:55:08.579Z,16.28
2017-10-11T12:57:36.423Z,16.31
2017-10-11T13:00:04.330Z,16.31
2017-10-11T13:02:33.324Z,16.32
2017-10-11T13:05:01.247Z,16.33
2017-10-11T13:07:29.169Z,16.35
2017-10-11T13:09:57.143Z,16.33
2017-10-11T13:12:25.077Z,16.32
2017-10-11T13:14:52.998Z,16.32
2017-10-11T13:17:20.856Z,16.32
2017-10-11T13:19:48.885Z,16.30
2017-10-11T13:22:16.779Z,16.32
2017-10-11T13:24:44.643Z,16.30
2017-10-11T13:27:12.536Z,16.33
2017-10-11T13:29:40.468Z,16.32
2017-10-11T13:32:08.440Z,16.32
2017-10-11T13:34:36.341Z,16.36
2017-10-11T13:37:04.330Z,16.36
2017-10-11T13:39:32.235Z,16.36
2017-10-11T13:42:01.144Z,16.34
2017-10-11T13:44:29.123Z,16.33
2017-10-11T13:46:57.155Z,16.32
2017-10-11T13:49:25.060Z,16.31
2017-10-11T13:51:52.965Z,16.29
2017-10-11T13:54:21.092Z,16.28
2017-10-11T13:56:49.043Z,16.29
2017-10-11T13:59:17.116Z,16.31
2017-10-11T14:01:45.123Z,16.32
2017-10-11T14:04:13.340Z,16.39
2017-10-11T14:06:41.170Z,16.41
2017-10-11T14:09:09.092Z,16.40
2017-10-11T14:11:37.061Z,16.44
2017-10-11T14:14:04.891Z,16.46
2017-10-11T14:16:32.878Z,16.49
2017-10-11T14:19:00.847Z,16.53
2017-10-11T14:21:28.717Z,16.56
2017-10-11T14:23:56.606Z,16.56
2017-10-11T14:26:24.540Z,16.54
2017-10-11T14:28:52.486Z,16.58
2017-10-11T14:31:20.519Z,16.63
2017-10-11T14:33:48.454Z,16.66
2017-10-11T14:36:16.422Z,16.65
2017-10-11T14:38:44.360Z,16.63
2017-10-11T14:41:12.350Z,16.64
2017-10-11T14:43:40.243Z,16.65
2017-10-11T14:46:08.189Z,16.69
2017-10-11T14:48:36.130Z,16.71
2017-10-11T14:51:04.061Z,16.73
2017-10-11T14:53:31.876Z,16.73
2017-10-11T14:55:59.774Z,16.78
2017-10-11T14:58:27.615Z,16.80
2017-10-11T15:00:55.556Z,16.79
2017-10-11T15:03:23.572Z,16.78
2017-10-11T15:05:51.532Z,16.76
2017-10-11T15:08:19.480Z,16.75
2017-10-11T15:10:47.687Z,16.74
2017-10-11T15:13:15.591Z,16.75
2017-10-11T15:15:43.599Z,16.74
2017-10-11T15:18:11.746Z,16.74
2017-10-11T15:20:39.781Z,16.73
2017-10-11T15:23:07.724Z,16.68
2017-10-11T15:25:35.896Z,16.67
2017-10-11T15:28:04.219Z,16.64
2017-10-11T15:30:31.982Z,16.58
2017-10-11T15:32:59.715Z,16.58
2017-10-11T15:35:27.377Z,16.55
2017-10-11T15:37:55.015Z,16.52
2017-10-11T15:40:23.003Z,16.52
2017-10-11T15:42:50.675Z,16.51
2017-10-11T15:45:18.361Z,16.50
2017-10-11T15:47:46.031Z,16.47
2017-10-11T15:50:13.729Z,16.43
2017-10-11T15:52:41.420Z,16.44
2017-10-11T15:55:09.126Z,16.46
2017-10-11T15:57:36.756Z,16.44
2017-10-11T16:00:04.713Z,16.40
2017-10-11T16:02:32.696Z,16.39
2017-10-11T16:05:00.655Z,16.42
2017-10-11T16:07:28.457Z,16.42
2017-10-11T16:09:57.338Z,16.41
2017-10-11T16:12:25.424Z,16.42
2017-10-11T16:14:53.275Z,16.44
2017-10-11T16:17:21.061Z,16.44
2017-10-11T16:19:48.897Z,16.41
2017-10-11T16:22:16.823Z,16.42
2017-10-11T16:24:46.392Z,16.40
2017-10-11T16:27:14.225Z,16.42
2017-10-11T16:29:42.924Z,16.38
2017-10-11T16:32:10.892Z,16.34
2017-10-11T16:34:39.328Z,16.33
2017-10-11T16:37:08.235Z,16.32
2017-10-11T16:39:36.916Z,16.36
2017-10-11T16:42:05.882Z,16.40
2017-10-11T16:44:37.115Z,16.40
2017-10-11T16:47:06.224Z,16.36
2017-10-11T16:49:35.943Z,16.35
2017-10-11T16:52:04.928Z,16.39
2017-10-11T16:54:33.193Z,16.43
2017-10-11T16:57:01.116Z,16.44
2017-10-11T16:59:29.221Z,16.45
2017-10-11T17:01:57.096Z,16.43
2017-10-11T17:04:25.077Z,16.42
2017-10-11T17:06:52.930Z,16.44
2017-10-11T17:09:20.789Z,16.43
2017-10-11T17:11:48.649Z,16.45
2017-10-11T17:14:16.568Z,16.45
2017-10-11T17:16:44.517Z,16.45
2017-10-11T17:19:12.545Z,16.47
2017-10-11T17:21:40.296Z,16.47
2017-10-11T17:24:08.074Z,16.48
2017-10-11T17:26:35.848Z,16.50
2017-10-11T17:29:03.723Z,16.50
2017-10-11T17:31:31.631Z,16.52
2017-10-11T17:33:59.660Z,16.60
2017-10-11T17:36:27.728Z,16.66
2017-10-11T17:38:55.800Z,16.73
2017-10-11T17:41:24.464Z,16.80
2017-10-11T17:43:53.928Z,16.79
2017-10-11T17:46:22.187Z,16.73
2017-10-11T17:48:49.953Z,16.69
2017-10-11T17:51:19.319Z,16.66
2017-10-11T17:53:47.791Z,16.66
2017-10-11T17:56:16.796Z,16.67
2017-10-11T17:58:44.612Z,16.64
2017-10-11T18:01:12.390Z,16.64
2017-10-11T18:03:40.126Z,16.63
2017-10-11T18:06:07.905Z,16.62
2017-10-11T18:08:35.648Z,16.61
2017-10-11T18:11:03.623Z,16.59
2017-10-11T18:13:32.315Z,16.57
2017-10-11T18:16:00.753Z,16.55
2017-10-11T18:18:29.790Z,16.53
2017-10-11T18:20:57.825Z,16.51
2017-10-11T18:23:29.084Z,16.47
2017-10-11T18:25:59.352Z,16.43
2017-10-11T18:33:51.290Z,16.29
2017-10-11T18:36:20.316Z,16.27
2017-10-11T18:38:50.103Z,16.25
2017-10-11T18:41:20.764Z,16.24
2017-10-11T18:43:53.531Z,16.22
2017-10-11T18:46:24.349Z,16.20
2017-10-11T18:48:54.933Z,16.23
2017-10-11T18:51:26.566Z,16.19
2017-10-11T18:53:56.345Z,16.16
2017-10-11T18:56:26.671Z,16.09
2017-10-11T18:58:55.741Z,16.08
2017-10-11T19:01:25.390Z,16.01
2017-10-11T19:03:53.457Z,15.96
2017-10-11T19:06:21.744Z,15.92
2017-10-11T19:08:49.832Z,15.90
2017-10-11T19:11:18.936Z,15.89
2017-10-11T19:13:47.087Z,15.88
2017-10-11T19:16:15.253Z,15.96
2017-10-11T19:18:44.286Z,16.01
2017-10-11T19:21:13.130Z,16.05
2017-10-11T19:23:41.061Z,16.08
2017-10-11T19:26:09.060Z,16.12
2017-10-11T19:28:44.532Z,16.18
2017-10-11T19:31:18.391Z,16.22
2017-10-11T19:33:54.071Z,16.26
2017-10-11T19:36:23.356Z,16.23
2017-10-11T19:38:53.151Z,16.21
2017-10-11T19:41:24.654Z,16.21
2017-10-11T19:43:52.627Z,16.22
2017-10-11T19:46:20.421Z,16.19
2017-10-11T19:48:48.351Z,16.19
2017-10-11T19:51:16.338Z,16.17
2017-10-11T19:53:44.216Z,16.18
2017-10-11T19:56:11.996Z,16.17
2017-10-11T19:58:40.081Z,16.18
2017-10-11T20:01:08.037Z,16.20
2017-10-11T20:03:36.748Z,16.22
2017-10-11T20:06:04.722Z,16.23
2017-10-11T20:08:32.939Z,16.22
2017-10-11T20:11:01.151Z,16.19
2017-10-11T20:13:30.593Z,16.18
2017-10-11T20:15:59.464Z,16.19
2017-10-11T20:18:27.311Z,16.19
2017-10-11T20:20:55.150Z,16.18
2017-10-11T20:23:23.161Z,16.20
2017-10-11T20:25:51.043Z,16.17
2017-10-11T20:28:19.136Z,16.17
2017-10-11T20:30:47.060Z,16.15
2017-10-11T20:33:14.954Z,16.14
2017-10-11T20:35:43.099Z,16.16
2017-10-11T20:38:13.863Z,16.16
2017-10-11T20:40:41.699Z,16.15
2017-10-11T20:43:09.572Z,16.17
2017-10-11T20:45:37.429Z,16.17
2017-10-11T20:48:05.237Z,16.15
2017-10-11T20:50:33.170Z,16.16
2017-10-11T20:53:02.099Z,16.13
2017-10-11T20:55:30.117Z,16.15
2017-10-11T20:58:01.625Z,16.18
2017-10-11T21:00:36.224Z,16.17
2017-10-11T21:03:04.129Z,16.18
2017-10-11T21:05:31.928Z,16.18
2017-10-11T21:08:00.269Z,16.18
2017-10-11T21:10:28.116Z,16.19
2017-10-11T21:12:55.934Z,16.18
2017-10-11T21:15:23.820Z,16.20
2017-10-11T21:17:51.646Z,16.23
2017-10-11T21:20:19.423Z,16.22
2017-10-11T21:22:47.541Z,16.22
2017-10-11T21:25:15.419Z,16.23
2017-10-11T21:27:43.204Z,16.23
2017-10-11T21:30:11.093Z,16.20
2017-10-11T21:32:39.082Z,16.20
2017-10-11T21:35:07.841Z,16.19
2017-10-11T21:43:03.718Z,16.19
2017-10-11T21:45:32.197Z,16.22
2017-10-11T21:48:00.042Z,16.22
2017-10-11T21:50:28.134Z,16.27
2017-10-11T21:52:56.048Z,16.30
2017-10-11T21:55:23.852Z,16.33
2017-10-11T21:57:51.697Z,16.32
2017-10-11T22:00:19.548Z,16.33
2017-10-11T22:02:47.393Z,16.35
2017-10-11T22:05:15.298Z,16.35
2017-10-11T22:07:43.101Z,16.36
2017-10-11T22:10:10.864Z,16.36
2017-10-11T22:12:38.634Z,16.38
2017-10-11T22:15:06.441Z,16.38
2017-10-11T22:17:34.197Z,16.37
2017-10-11T22:20:01.912Z,16.33
2017-10-11T22:22:29.638Z,16.32
2017-10-11T22:24:57.383Z,16.32
2017-10-11T22:27:25.140Z,16.32
2017-10-11T22:29:52.873Z,16.32
2017-10-11T22:32:20.601Z,16.29
2017-10-11T22:34:48.304Z,16.29
2017-10-11T22:37:16.037Z,16.29
2017-10-11T22:39:43.822Z,16.29
2017-10-11T22:42:11.549Z,16.28
2017-10-11T22:44:39.269Z,16.23
2017-10-11T22:47:07.005Z,16.22
2017-10-11T22:49:34.804Z,16.22
2017-10-11T22:52:02.737Z,16.19
2017-10-11T22:54:30.560Z,16.15
2017-10-11T22:56:58.376Z,16.13
2017-10-11T22:59:26.181Z,16.14
2017-10-11T23:01:53.954Z,16.12
2017-10-11T23:04:22.735Z,16.12
2017-10-11T23:06:50.497Z,16.12
2017-10-11T23:09:18.629Z,16.14
2017-10-11T23:11:46.750Z,16.14
2017-10-11T23:14:14.830Z,16.12
2017-10-11T23:16:42.914Z,16.11
2017-10-11T23:19:11.127Z,16.05
2017-10-11T23:21:39.276Z,16.04
2017-10-11T23:24:10.102Z,16.01
2017-10-11T23:26:38.184Z,16.00
2017-10-11T23:29:06.204Z,15.98
2017-10-11T23:31:35.349Z,16.00
2017-10-11T23:34:03.312Z,16.05
2017-10-11T23:36:31.956Z,16.08
2017-10-11T23:39:00.035Z,16.12
2017-10-11T23:41:28.201Z,16.11
2017-10-11T23:43:56.668Z,16.11
2017-10-11T23:48:57.056Z,16.11
2017-10-11T23:51:25.514Z,16.11
2017-10-11T23:53:53.635Z,16.12
2017-10-11T23:56:21.707Z,16.10
2017-10-11T23:58:49.746Z,16.10
